Time;durP1;ratioP1;P1;durP2;ratioP2;P2;SDS_P1;SDS_P2;PMS_P1;PMS_P2;Temp;Humidity;BMP_temperature;BMP_pressure;BME280_temperature;BME280_humidity;BME280_pressure;Samples;Min_cycle;Max_cycle;Signal;HPM_P1;HPM_P2
2022/10/28 00:00:04;;;;;;;24.40;18.25;;;11.90;99.90;;;;;;2073224;28;20515;-75
2022/10/28 00:01:09;;;;;;;24.85;17.77;;;11.90;99.90;;;;;;2072745;28;20120;-73
2022/10/28 00:02:10;;;;;;;23.33;17.75;;;11.90;99.90;;;;;;2073230;28;20061;-73
2022/10/28 00:03:10;;;;;;;23.45;18.08;;;12.00;99.90;;;;;;2073146;28;20108;-72
2022/10/28 00:04:11;;;;;;;23.63;18.05;;;12.00;99.90;;;;;;2080726;28;20131;-71
2022/10/28 00:05:11;;;;;;;23.90;17.95;;;12.00;99.90;;;;;;2081285;28;20097;-72
2022/10/28 00:06:18;;;;;;;23.58;17.98;;;12.00;99.90;;;;;;2073265;28;20507;-71
2022/10/28 00:07:19;;;;;;;25.30;18.52;;;12.00;99.90;;;;;;2073478;28;20026;-71
2022/10/28 00:08:20;;;;;;;26.15;18.20;;;11.90;99.90;;;;;;2073772;28;20045;-72
2022/10/28 00:09:20;;;;;;;25.25;17.85;;;11.90;99.90;;;;;;2073346;28;20547;-73
2022/10/28 00:10:21;;;;;;;23.45;17.52;;;11.90;99.90;;;;;;2073203;28;20437;-73
2022/10/28 00:11:27;;;;;;;23.63;18.08;;;11.90;99.90;;;;;;2073066;28;20033;-72
2022/10/28 00:12:28;;;;;;;23.35;17.50;;;12.00;99.90;;;;;;2073312;28;20480;-73
2022/10/28 00:13:30;;;;;;;22.30;16.95;;;12.00;99.90;;;;;;2064456;28;20022;-74
2022/10/28 00:14:31;;;;;;;25.25;18.85;;;12.00;99.90;;;;;;2056993;28;20031;-73
2022/10/28 00:15:34;;;;;;;24.23;17.80;;;12.00;99.90;;;;;;2072890;28;20029;-74
2022/10/28 00:16:36;;;;;;;25.05;18.48;;;12.00;99.90;;;;;;2073903;28;20105;-72
2022/10/28 00:17:37;;;;;;;27.30;18.65;;;12.00;99.90;;;;;;2073969;28;20025;-72
2022/10/28 00:18:38;;;;;;;24.17;18.05;;;12.00;99.90;;;;;;2074528;28;20674;-72
2022/10/28 00:19:38;;;;;;;24.75;17.65;;;12.00;99.90;;;;;;2074660;28;20037;-72
2022/10/28 00:20:39;;;;;;;22.67;17.33;;;12.00;99.90;;;;;;2074613;28;20026;-72
2022/10/28 00:21:41;;;;;;;23.95;17.95;;;12.00;99.90;;;;;;2074353;28;20053;-72
2022/10/28 00:22:42;;;;;;;25.27;17.60;;;12.00;99.90;;;;;;2073120;28;20033;-73
2022/10/28 00:23:43;;;;;;;23.33;17.92;;;12.00;99.90;;;;;;2073019;28;20490;-73
2022/10/28 00:24:44;;;;;;;25.20;18.17;;;12.00;99.90;;;;;;2073183;28;20033;-72
2022/10/28 00:25:45;;;;;;;21.13;17.05;;;12.00;99.90;;;;;;2072765;28;20049;-73
2022/10/28 00:26:45;;;;;;;22.77;17.17;;;12.00;99.90;;;;;;2073105;28;20126;-74
2022/10/28 00:27:46;;;;;;;23.40;17.85;;;12.00;99.90;;;;;;2073147;28;20038;-72
2022/10/28 00:28:54;;;;;;;24.67;18.38;;;12.00;99.90;;;;;;2072579;28;20026;-74
2022/10/28 00:29:55;;;;;;;24.63;18.58;;;12.00;99.90;;;;;;2072746;28;20026;-74
2022/10/28 00:31:03;;;;;;;26.30;19.50;;;11.90;99.90;;;;;;2080977;28;20033;-74
2022/10/28 00:32:04;;;;;;;27.15;19.05;;;12.00;99.90;;;;;;2080668;28;20464;-74
2022/10/28 00:33:04;;;;;;;24.85;19.42;;;11.90;99.90;;;;;;2073800;28;20033;-74
2022/10/28 00:34:09;;;;;;;26.65;19.77;;;11.90;99.90;;;;;;2074157;28;20029;-72
2022/10/28 00:35:10;;;;;;;25.80;19.58;;;11.90;99.90;;;;;;2074205;28;20030;-72
2022/10/28 00:36:14;;;;;;;28.20;20.20;;;11.90;99.90;;;;;;2073786;28;20022;-72
2022/10/28 00:37:15;;;;;;;26.05;19.63;;;11.90;99.90;;;;;;2073835;28;20038;-71
2022/10/28 00:38:15;;;;;;;24.80;18.77;;;11.90;99.90;;;;;;2073951;28;20108;-73
2022/10/28 00:39:18;;;;;;;25.73;19.17;;;11.80;99.90;;;;;;2073601;28;20025;-73
2022/10/28 00:40:19;;;;;;;26.48;19.75;;;11.80;99.90;;;;;;2074648;28;20554;-73
2022/10/28 00:41:26;;;;;;;26.60;19.00;;;11.80;99.90;;;;;;2074944;28;20037;-74
2022/10/28 00:42:27;;;;;;;26.15;18.65;;;11.80;99.90;;;;;;2075289;28;20084;-73
2022/10/28 00:43:36;;;;;;;27.50;19.90;;;11.80;99.90;;;;;;2073262;28;20091;-73
2022/10/28 00:44:54;;;;;;;26.85;18.77;;;11.80;99.90;;;;;;2072994;28;20022;-73
2022/10/28 00:45:55;;;;;;;23.33;16.98;;;11.80;99.90;;;;;;2072987;28;20468;-74
2022/10/28 00:46:55;;;;;;;24.65;18.25;;;11.80;99.90;;;;;;2072415;28;20108;-74
2022/10/28 00:48:01;;;;;;;23.48;17.52;;;11.80;99.90;;;;;;2072240;28;20475;-73
2022/10/28 00:49:09;;;;;;;23.17;17.75;;;11.80;99.90;;;;;;2071983;28;20030;-73
2022/10/28 00:50:36;;;;;;;22.77;16.80;;;11.80;99.90;;;;;;2072392;28;20030;-72
2022/10/28 00:51:36;;;;;;;22.52;16.98;;;11.80;99.90;;;;;;2072441;28;20499;-72
2022/10/28 00:52:39;;;;;;;21.20;16.73;;;11.80;99.90;;;;;;2072885;28;20097;-72
2022/10/28 00:53:42;;;;;;;21.42;16.58;;;11.90;99.90;;;;;;2073744;28;20468;-73
2022/10/28 00:54:44;;;;;;;22.10;16.80;;;11.80;99.90;;;;;;2071931;28;20077;-74
2022/10/28 00:55:46;;;;;;;22.27;16.90;;;11.90;99.90;;;;;;2072860;28;20018;-73
2022/10/28 00:56:54;;;;;;;22.02;16.80;;;11.90;99.90;;;;;;2072753;28;20472;-73
2022/10/28 00:57:56;;;;;;;22.42;17.75;;;11.90;99.90;;;;;;2072236;28;20026;-73
2022/10/28 00:58:59;;;;;;;24.20;16.45;;;11.90;99.90;;;;;;2072485;28;20407;-74
2022/10/28 01:00:01;;;;;;;20.95;16.15;;;11.90;99.90;;;;;;2072794;28;20112;-74
2022/10/28 01:01:02;;;;;;;22.25;16.38;;;11.90;99.90;;;;;;2072689;28;20092;-74
2022/10/28 01:02:04;;;;;;;19.83;15.80;;;11.90;99.90;;;;;;2073340;28;20476;-73
2022/10/28 01:03:05;;;;;;;20.60;16.45;;;11.90;99.90;;;;;;2073359;28;20026;-73
2022/10/28 01:06:29;;;;;;;20.30;15.40;;;12.00;99.90;;;;;;2074858;28;20034;-72
2022/10/28 01:07:29;;;;;;;21.58;16.38;;;12.00;99.90;;;;;;2074985;28;20025;-72
2022/10/28 01:08:31;;;;;;;20.50;16.13;;;12.00;99.90;;;;;;2074259;28;20034;-71
2022/10/28 01:09:31;;;;;;;22.63;17.10;;;11.90;99.90;;;;;;2074767;28;20034;-74
2022/10/28 01:11:07;;;;;;;22.60;17.30;;;12.00;99.90;;;;;;2075609;28;20046;-72
2022/10/28 01:12:26;;;;;;;22.10;16.73;;;12.00;99.90;;;;;;2075761;28;20030;-73
2022/10/28 01:13:51;;;;;;;21.83;16.67;;;12.00;99.90;;;;;;2075069;28;20041;-72
2022/10/28 01:15:07;;;;;;;21.45;15.85;;;12.00;99.90;;;;;;2073158;28;20061;-71
2022/10/28 01:16:13;;;;;;;22.95;16.85;;;12.00;99.90;;;;;;2073744;28;20038;-72
2022/10/28 01:17:49;;;;;;;25.17;18.08;;;12.00;99.90;;;;;;2073938;28;20018;-71
2022/10/28 01:19:07;;;;;;;26.30;17.48;;;12.00;99.90;;;;;;2073585;28;20464;-72
2022/10/28 01:20:39;;;;;;;25.13;17.38;;;12.10;99.90;;;;;;2073284;28;20136;-71
2022/10/28 01:22:04;;;;;;;23.20;16.90;;;12.10;99.90;;;;;;2072501;28;20129;-72
2022/10/28 01:23:24;;;;;;;20.10;16.52;;;12.10;99.90;;;;;;2072985;28;20496;-71
2022/10/28 01:25:17;;;;;;;22.85;16.75;;;12.10;99.90;;;;;;2072816;28;20452;-72
2022/10/28 01:26:57;;;;;;;21.88;16.20;;;12.20;99.90;;;;;;2047371;29;20210;-74
2022/10/28 01:28:08;;;;;;;24.05;17.35;;;12.20;99.90;;;;;;2052579;28;20043;-74
2022/10/28 01:29:45;;;;;;;21.77;16.70;;;12.20;99.90;;;;;;2072058;28;20558;-73
2022/10/28 01:30:52;;;;;;;24.40;16.77;;;12.20;99.90;;;;;;2072671;28;20029;-73
2022/10/28 01:32:00;;;;;;;23.52;16.25;;;12.20;99.90;;;;;;2072720;28;20026;-73
2022/10/28 01:33:08;;;;;;;23.00;17.35;;;12.20;99.90;;;;;;2063659;28;20046;-74
2022/10/28 01:34:30;;;;;;;21.70;16.67;;;12.20;99.90;;;;;;2065048;28;20416;-73
2022/10/28 01:35:49;;;;;;;23.45;17.02;;;12.20;99.90;;;;;;2072676;28;20069;-73
2022/10/28 01:37:10;;;;;;;22.27;16.92;;;12.20;99.90;;;;;;2072593;28;20039;-73
2022/10/28 01:38:30;;;;;;;22.00;17.25;;;12.20;99.90;;;;;;2072931;28;20028;-73
2022/10/28 01:39:33;;;;;;;22.73;17.30;;;12.20;99.90;;;;;;2072443;28;20084;-73
2022/10/28 01:40:52;;;;;;;23.83;17.23;;;12.30;99.90;;;;;;2071806;28;20121;-74
2022/10/28 01:42:12;;;;;;;26.38;19.60;;;12.30;99.90;;;;;;2073844;28;20041;-73
2022/10/28 01:43:21;;;;;;;24.63;19.20;;;12.30;99.90;;;;;;2080253;28;20028;-73
2022/10/28 01:44:34;;;;;;;24.55;18.35;;;12.30;99.90;;;;;;2078611;28;20025;-72
2022/10/28 01:46:09;;;;;;;23.88;17.45;;;12.30;99.90;;;;;;2072883;28;20030;-74
2022/10/28 01:47:13;;;;;;;20.98;16.77;;;12.30;99.90;;;;;;2063499;28;20046;-72
2022/10/28 01:48:54;;;;;;;23.15;17.08;;;12.30;99.90;;;;;;2071788;28;20033;-74
2022/10/28 01:50:07;;;;;;;22.88;16.73;;;12.30;99.90;;;;;;2069042;28;20034;-73
2022/10/28 01:51:25;;;;;;;21.90;16.48;;;12.30;99.90;;;;;;2071763;28;20055;-74
2022/10/28 01:52:29;;;;;;;26.00;18.58;;;12.30;99.90;;;;;;2072516;28;20044;-73
2022/10/28 01:53:34;;;;;;;24.35;18.10;;;12.30;99.90;;;;;;2072388;28;20492;-73
2022/10/28 01:54:37;;;;;;;23.63;17.40;;;12.30;99.90;;;;;;2071617;28;20080;-74
2022/10/28 01:55:41;;;;;;;23.27;17.77;;;12.30;99.90;;;;;;2071882;28;20878;-74
2022/10/28 01:56:45;;;;;;;25.50;18.85;;;12.40;99.90;;;;;;2072253;28;20113;-74
2022/10/28 01:57:49;;;;;;;22.60;17.45;;;12.40;99.90;;;;;;2080339;28;20047;-74
2022/10/28 01:58:52;;;;;;;22.25;16.80;;;12.40;99.90;;;;;;2079818;28;20021;-74
2022/10/28 01:59:54;;;;;;;23.17;17.73;;;12.40;99.90;;;;;;2063603;28;20121;-75
2022/10/28 02:00:58;;;;;;;22.23;17.17;;;12.40;99.90;;;;;;2063783;28;20389;-74
2022/10/28 02:02:00;;;;;;;22.83;17.58;;;12.40;99.90;;;;;;2072463;28;20046;-74
2022/10/28 02:03:01;;;;;;;22.27;17.08;;;12.40;99.90;;;;;;2072523;28;20040;-73
2022/10/28 02:04:02;;;;;;;22.90;17.83;;;12.50;99.90;;;;;;2072382;28;20029;-74
2022/10/28 02:05:44;;;;;;;23.65;17.80;;;12.50;99.90;;;;;;2072209;28;20153;-73
2022/10/28 02:06:49;;;;;;;26.20;18.23;;;12.50;99.90;;;;;;2072569;28;20037;-73
2022/10/28 02:07:53;;;;;;;25.15;18.90;;;12.50;99.90;;;;;;2072262;28;20472;-73
2022/10/28 02:09:12;;;;;;;23.92;18.25;;;12.50;99.90;;;;;;2079755;28;20033;-74
2022/10/28 02:10:21;;;;;;;21.02;17.52;;;12.50;99.90;;;;;;2077526;28;20428;-74
2022/10/28 02:11:41;;;;;;;23.13;17.83;;;12.50;99.90;;;;;;2072343;28;20025;-74
2022/10/28 02:12:46;;;;;;;22.40;17.38;;;12.50;99.90;;;;;;2072256;28;20025;-73
2022/10/28 02:14:06;;;;;;;23.63;19.02;;;12.50;99.90;;;;;;2072381;28;20310;-73
2022/10/28 02:15:40;;;;;;;25.10;18.33;;;12.50;99.90;;;;;;2072112;28;20109;-73
2022/10/28 02:16:57;;;;;;;22.35;17.38;;;12.50;99.90;;;;;;2072272;28;20045;-73
2022/10/28 02:18:05;;;;;;;22.40;17.88;;;12.50;99.90;;;;;;2072137;28;20102;-72
2022/10/28 02:19:17;;;;;;;21.38;16.55;;;12.50;99.90;;;;;;2079845;28;20072;-73
2022/10/28 02:20:27;;;;;;;25.85;18.63;;;12.60;99.90;;;;;;2078369;28;20113;-73
2022/10/28 02:21:30;;;;;;;26.38;19.52;;;12.60;99.90;;;;;;2072347;28;20238;-74
2022/10/28 02:22:51;;;;;;;24.13;18.77;;;12.60;99.90;;;;;;2072438;28;20060;-74
2022/10/28 02:24:03;;;;;;;25.30;18.48;;;12.60;99.90;;;;;;2071296;28;20477;-74
2022/10/28 02:25:18;;;;;;;27.23;19.65;;;12.60;99.90;;;;;;2071345;28;20053;-74
2022/10/28 02:26:18;;;;;;;24.50;18.27;;;12.60;99.90;;;;;;2072375;28;20030;-74
2022/10/28 02:27:22;;;;;;;24.40;18.65;;;12.60;99.90;;;;;;2072145;28;20522;-73
2022/10/28 02:28:38;;;;;;;24.33;18.33;;;12.70;99.90;;;;;;2072064;28;20503;-74
2022/10/28 02:29:48;;;;;;;25.73;18.75;;;12.70;99.90;;;;;;2072159;28;20515;-74
2022/10/28 02:30:57;;;;;;;25.58;18.48;;;12.70;99.90;;;;;;2072346;28;20045;-73
2022/10/28 02:32:03;;;;;;;32.25;23.40;;;12.70;99.90;;;;;;2072356;28;20057;-74
2022/10/28 02:33:09;;;;;;;38.33;28.45;;;12.70;99.90;;;;;;2072182;28;20042;-74
2022/10/28 02:34:16;;;;;;;37.53;27.80;;;12.70;99.90;;;;;;2071873;28;20651;-70
2022/10/28 02:35:24;;;;;;;34.33;26.77;;;12.80;99.90;;;;;;2072179;28;20026;-72
2022/10/28 02:36:28;;;;;;;39.15;28.30;;;12.80;99.90;;;;;;2072099;28;20026;-73
2022/10/28 02:37:32;;;;;;;40.03;29.38;;;12.80;99.90;;;;;;2071967;28;20022;-73
2022/10/28 02:38:47;;;;;;;39.50;28.05;;;12.90;99.90;;;;;;2072299;28;20488;-73
2022/10/28 02:39:52;;;;;;;34.70;25.38;;;12.80;99.90;;;;;;2072189;28;20030;-73
2022/10/28 02:40:58;;;;;;;30.50;22.48;;;12.90;99.90;;;;;;2071520;28;20479;-73
2022/10/28 02:42:10;;;;;;;33.05;23.13;;;12.90;99.90;;;;;;2071559;28;20542;-73
2022/10/28 02:43:14;;;;;;;31.23;22.80;;;12.90;99.90;;;;;;2072089;28;20117;-74
2022/10/28 02:44:18;;;;;;;30.10;22.63;;;12.90;99.90;;;;;;2071862;28;20103;-73
2022/10/28 02:45:24;;;;;;;27.25;20.90;;;12.80;99.90;;;;;;2071548;28;20045;-73
2022/10/28 02:46:26;;;;;;;28.25;21.15;;;12.90;99.90;;;;;;2071757;28;20057;-73
2022/10/28 02:47:31;;;;;;;33.28;25.55;;;12.90;99.90;;;;;;2071368;28;20025;-73
2022/10/28 02:48:39;;;;;;;33.20;24.50;;;12.90;99.90;;;;;;2063911;28;20121;-73
2022/10/28 02:49:43;;;;;;;31.13;22.90;;;12.90;99.90;;;;;;2070744;28;20033;-74
2022/10/28 02:50:52;;;;;;;30.42;23.65;;;12.90;99.90;;;;;;2071571;28;20120;-73
2022/10/28 02:51:56;;;;;;;32.35;24.13;;;12.90;99.90;;;;;;2070721;28;20026;-72
2022/10/28 02:52:59;;;;;;;30.67;22.73;;;12.90;99.90;;;;;;2063910;28;20487;-73
2022/10/28 02:54:08;;;;;;;31.73;23.45;;;12.90;99.90;;;;;;2063737;28;20396;-72
2022/10/28 02:55:09;;;;;;;30.38;23.55;;;12.90;99.90;;;;;;2063607;28;20077;-72
2022/10/28 02:56:14;;;;;;;34.00;25.30;;;12.90;99.90;;;;;;2063810;28;20540;-72
2022/10/28 02:57:19;;;;;;;45.08;31.70;;;12.90;99.90;;;;;;2063627;28;20018;-72
2022/10/28 02:58:21;;;;;;;42.05;29.45;;;12.90;99.90;;;;;;2063855;28;20035;-72
2022/10/28 02:59:23;;;;;;;42.55;28.75;;;12.90;99.90;;;;;;2063731;28;20033;-73
2022/10/28 03:00:24;;;;;;;38.10;26.75;;;12.90;99.90;;;;;;2063828;28;20073;-72
2022/10/28 03:01:25;;;;;;;40.50;28.92;;;12.90;99.90;;;;;;2064371;28;20100;-72
2022/10/28 03:02:26;;;;;;;47.30;32.10;;;12.90;99.90;;;;;;2064179;28;20034;-72
2022/10/28 03:03:27;;;;;;;43.00;29.63;;;12.90;99.90;;;;;;2064640;28;20029;-73
2022/10/28 03:04:28;;;;;;;40.47;28.42;;;13.00;99.90;;;;;;2063803;28;20065;-73
2022/10/28 03:05:29;;;;;;;38.92;27.35;;;13.00;99.90;;;;;;2063412;28;20516;-72
2022/10/28 03:06:30;;;;;;;40.85;28.58;;;13.00;99.90;;;;;;2063552;28;20034;-73
2022/10/28 03:07:30;;;;;;;36.63;26.05;;;13.00;99.90;;;;;;2063609;28;20484;-72
2022/10/28 03:08:31;;;;;;;40.45;28.15;;;13.00;99.90;;;;;;2064034;28;20030;-72
2022/10/28 03:09:32;;;;;;;38.33;28.23;;;13.00;99.90;;;;;;2064119;28;20481;-73
2022/10/28 03:10:33;;;;;;;40.00;27.40;;;13.00;99.90;;;;;;2064478;28;20703;-72
2022/10/28 03:11:33;;;;;;;36.38;27.25;;;13.00;99.90;;;;;;2068003;28;20073;-72
2022/10/28 03:12:34;;;;;;;37.00;26.95;;;13.10;99.90;;;;;;2065631;28;20460;-72
2022/10/28 03:13:35;;;;;;;44.83;31.67;;;13.10;99.90;;;;;;2068533;28;20033;-72
2022/10/28 03:14:36;;;;;;;44.05;30.45;;;13.10;99.90;;;;;;2066500;28;20367;-72
2022/10/28 03:15:37;;;;;;;43.05;29.98;;;13.10;99.90;;;;;;2064984;28;20081;-72
2022/10/28 03:16:37;;;;;;;38.75;27.52;;;13.00;99.90;;;;;;2064036;28;20027;-73
2022/10/28 03:17:39;;;;;;;40.80;27.80;;;13.10;99.90;;;;;;2064075;28;20030;-74
2022/10/28 03:18:40;;;;;;;36.95;26.42;;;13.10;99.90;;;;;;2066087;28;20121;-72
2022/10/28 03:19:40;;;;;;;37.83;26.73;;;13.10;99.90;;;;;;2066695;28;20392;-72
2022/10/28 03:20:41;;;;;;;37.15;26.45;;;13.10;99.90;;;;;;2071216;28;20408;-72
2022/10/28 03:21:42;;;;;;;34.95;24.90;;;13.10;99.90;;;;;;2073481;28;20540;-72
2022/10/28 03:22:43;;;;;;;36.40;25.73;;;13.10;99.90;;;;;;2073857;28;20049;-72
2022/10/28 03:23:43;;;;;;;34.90;25.70;;;13.10;99.90;;;;;;2081560;28;20025;-73
2022/10/28 03:24:44;;;;;;;34.83;24.98;;;13.10;99.90;;;;;;2080960;28;20045;-73
2022/10/28 03:25:45;;;;;;;44.92;30.45;;;13.10;99.90;;;;;;2073580;28;20680;-73
2022/10/28 03:26:45;;;;;;;45.45;30.48;;;13.10;99.90;;;;;;2073619;28;20030;-72
2022/10/28 03:27:46;;;;;;;41.83;29.38;;;13.10;99.90;;;;;;2073702;28;20036;-73
2022/10/28 03:31:09;;;;;;;40.15;27.45;;;13.10;99.90;;;;;;2073707;28;20473;-73
2022/10/28 03:32:09;;;;;;;38.30;26.42;;;13.10;99.90;;;;;;2081388;28;20107;-73
2022/10/28 03:33:10;;;;;;;37.97;26.70;;;13.00;99.90;;;;;;2073123;28;20025;-72
2022/10/28 03:34:11;;;;;;;36.53;26.27;;;13.00;99.90;;;;;;2065584;28;20062;-73
2022/10/28 03:35:12;;;;;;;35.13;24.83;;;13.00;99.90;;;;;;2073241;28;20029;-75
2022/10/28 03:36:12;;;;;;;32.75;24.08;;;13.00;99.90;;;;;;2073533;28;20443;-73
2022/10/28 03:44:20;;;;;;;49.08;32.42;;;12.90;99.90;;;;;;2073245;28;20033;-74
2022/10/28 03:45:20;;;;;;;47.17;31.98;;;12.80;99.90;;;;;;2073651;28;20772;-72
2022/10/28 03:46:21;;;;;;;50.42;33.20;;;12.80;99.90;;;;;;2073391;28;20057;-74
2022/10/28 03:47:22;;;;;;;49.17;31.70;;;12.80;99.90;;;;;;2073420;28;20030;-75
2022/10/28 03:48:22;;;;;;;51.15;32.95;;;12.80;99.90;;;;;;2073601;28;20026;-72
2022/10/28 03:49:23;;;;;;;48.88;32.10;;;12.80;99.90;;;;;;2073639;28;20427;-73
2022/10/28 03:50:24;;;;;;;43.08;30.45;;;12.80;99.90;;;;;;2073880;28;20427;-72
2022/10/28 03:51:24;;;;;;;46.88;31.95;;;12.80;99.90;;;;;;2080768;28;20380;-74
2022/10/28 03:52:25;;;;;;;45.42;29.38;;;12.80;99.90;;;;;;2081233;28;20036;-74
2022/10/28 03:53:26;;;;;;;51.05;33.00;;;12.80;99.90;;;;;;2081074;28;20144;-73
2022/10/28 03:54:26;;;;;;;52.60;35.03;;;12.80;99.90;;;;;;2080820;28;20049;-74
2022/10/28 03:55:27;;;;;;;45.90;31.27;;;12.80;99.90;;;;;;2073588;28;20029;-72
2022/10/28 03:56:27;;;;;;;41.05;28.63;;;12.80;99.90;;;;;;2073364;28;20033;-73
2022/10/28 03:57:32;;;;;;;48.28;31.95;;;12.80;99.90;;;;;;2072901;28;20074;-73
2022/10/28 03:58:33;;;;;;;51.67;32.75;;;12.80;99.90;;;;;;2073397;28;20042;-73
2022/10/28 03:59:33;;;;;;;50.22;32.97;;;12.80;99.90;;;;;;2080948;28;20096;-73
2022/10/28 04:02:50;;;;;;;53.33;33.05;;;12.80;99.90;;;;;;2073032;28;20018;-73
2022/10/28 04:03:51;;;;;;;49.33;32.47;;;12.80;99.90;;;;;;2073152;28;20030;-73
2022/10/28 04:07:13;;;;;;;55.33;34.65;;;12.80;99.90;;;;;;2073162;28;20559;-74
2022/10/28 04:08:15;;;;;;;54.90;35.13;;;12.80;99.90;;;;;;2073278;28;20046;-74
2022/10/28 04:09:15;;;;;;;49.78;33.08;;;12.80;99.90;;;;;;2073498;28;20026;-75
2022/10/28 04:10:16;;;;;;;50.88;33.88;;;12.80;99.90;;;;;;2073512;28;20117;-74
2022/10/28 04:11:17;;;;;;;54.83;35.00;;;12.80;99.90;;;;;;2073262;28;20088;-74
2022/10/28 04:12:17;;;;;;;50.45;32.58;;;12.80;99.90;;;;;;2073424;28;20041;-74
2022/10/28 04:13:18;;;;;;;48.22;32.55;;;12.80;99.90;;;;;;2073434;28;20026;-74
2022/10/28 04:14:18;;;;;;;48.55;31.48;;;12.80;99.90;;;;;;2073052;28;20037;-74
2022/10/28 04:15:19;;;;;;;49.22;31.73;;;12.80;99.90;;;;;;2072926;28;20679;-74
2022/10/28 04:16:20;;;;;;;54.75;35.00;;;12.80;99.90;;;;;;2073053;28;20634;-74
2022/10/28 04:17:20;;;;;;;55.13;34.85;;;12.80;99.90;;;;;;2080443;28;20030;-74
2022/10/28 04:18:21;;;;;;;52.55;32.67;;;12.80;99.90;;;;;;2080641;28;20566;-75
2022/10/28 04:19:22;;;;;;;48.78;32.17;;;12.80;99.90;;;;;;2073273;28;20030;-74
2022/10/28 04:20:24;;;;;;;47.20;31.08;;;12.80;99.90;;;;;;2073342;28;20033;-74
2022/10/28 04:21:24;;;;;;;47.72;32.15;;;12.80;99.90;;;;;;2073186;28;20018;-74
2022/10/28 04:22:25;;;;;;;49.92;33.50;;;12.80;99.90;;;;;;2073270;28;20556;-74
2022/10/28 04:23:26;;;;;;;48.85;31.92;;;12.80;99.90;;;;;;2073687;28;20026;-73
2022/10/28 04:24:26;;;;;;;52.00;34.05;;;12.80;99.90;;;;;;2073082;28;20041;-74
2022/10/28 04:25:27;;;;;;;51.35;32.63;;;12.80;99.90;;;;;;2073456;28;20034;-74
2022/10/28 04:28:50;;;;;;;53.45;32.25;;;12.70;99.90;;;;;;2072203;28;20045;-73
2022/10/28 04:29:50;;;;;;;54.88;33.35;;;12.80;99.90;;;;;;2071962;28;20513;-75
2022/10/28 04:30:51;;;;;;;52.35;33.63;;;12.70;99.90;;;;;;2072934;28;20018;-74
2022/10/28 04:31:52;;;;;;;47.08;31.40;;;12.70;99.90;;;;;;2072176;28;20018;-73
2022/10/28 04:32:52;;;;;;;49.50;31.40;;;12.70;99.90;;;;;;2072487;28;20091;-74
2022/10/28 04:33:53;;;;;;;46.92;30.40;;;12.70;99.90;;;;;;2080597;28;20096;-74
2022/10/28 04:34:54;;;;;;;45.50;29.77;;;12.70;99.90;;;;;;2073069;28;20442;-73
2022/10/28 04:35:54;;;;;;;52.92;33.35;;;12.70;99.90;;;;;;2073017;28;20060;-74
2022/10/28 04:36:55;;;;;;;55.33;35.25;;;12.70;99.90;;;;;;2072902;28;20057;-74
2022/10/28 04:37:56;;;;;;;52.22;33.45;;;12.70;99.90;;;;;;2072738;28;20029;-74
2022/10/28 04:38:56;;;;;;;47.90;32.03;;;12.70;99.90;;;;;;2073149;28;20097;-74
2022/10/28 04:39:57;;;;;;;46.72;32.00;;;12.70;99.90;;;;;;2073153;28;20484;-75
2022/10/28 04:40:58;;;;;;;51.22;33.75;;;12.70;99.90;;;;;;2073140;28;20063;-77
2022/10/28 04:41:58;;;;;;;51.83;33.75;;;12.70;99.90;;;;;;2072886;28;20062;-74
2022/10/28 04:42:59;;;;;;;58.03;38.00;;;12.70;99.90;;;;;;2073091;28;20029;-75
2022/10/28 04:44:00;;;;;;;54.13;36.53;;;12.70;99.90;;;;;;2073029;28;20369;-74
2022/10/28 04:45:00;;;;;;;50.83;34.42;;;12.70;99.90;;;;;;2080506;28;20033;-74
2022/10/28 04:46:04;;;;;;;52.80;34.17;;;12.70;99.90;;;;;;2080521;28;20764;-74
2022/10/28 04:47:05;;;;;;;58.03;37.22;;;12.70;99.90;;;;;;2080463;28;20040;-73
2022/10/28 04:48:07;;;;;;;55.53;35.10;;;12.70;99.90;;;;;;2072574;28;20468;-74
2022/10/28 04:49:08;;;;;;;56.50;36.70;;;12.70;99.90;;;;;;2072290;28;20026;-74
2022/10/28 04:50:09;;;;;;;55.58;35.53;;;12.70;99.90;;;;;;2080371;28;20628;-74
2022/10/28 04:51:10;;;;;;;56.28;34.33;;;12.70;99.90;;;;;;2073023;28;20057;-74
2022/10/28 04:52:11;;;;;;;52.67;33.88;;;12.70;99.90;;;;;;2073074;28;20053;-74
2022/10/28 04:53:12;;;;;;;54.38;34.55;;;12.70;99.90;;;;;;2072890;28;20028;-74
2022/10/28 04:54:12;;;;;;;55.85;36.30;;;12.70;99.90;;;;;;2072903;28;20033;-74
2022/10/28 04:55:13;;;;;;;62.13;39.33;;;12.70;99.90;;;;;;2072900;28;20412;-74
2022/10/28 04:56:14;;;;;;;61.60;39.20;;;12.70;99.90;;;;;;2072675;28;20025;-73
2022/10/28 04:57:14;;;;;;;57.97;37.00;;;12.70;99.90;;;;;;2072590;28;20045;-75
2022/10/28 04:58:15;;;;;;;57.30;36.47;;;12.70;99.90;;;;;;2072079;28;20030;-74
2022/10/28 04:59:16;;;;;;;55.05;35.25;;;12.70;99.90;;;;;;2072310;28;20037;-73
2022/10/28 05:00:16;;;;;;;60.38;38.55;;;12.70;99.90;;;;;;2072292;28;20018;-74
2022/10/28 05:01:17;;;;;;;59.20;37.08;;;12.80;99.90;;;;;;2080473;28;20026;-75
2022/10/28 05:02:18;;;;;;;58.92;37.45;;;12.70;99.90;;;;;;2080408;28;20442;-74
2022/10/28 05:03:18;;;;;;;57.65;35.30;;;12.80;99.90;;;;;;2071979;28;20058;-74
2022/10/28 05:04:19;;;;;;;51.22;34.22;;;12.80;99.90;;;;;;2072920;28;20169;-74
2022/10/28 05:05:20;;;;;;;52.63;33.92;;;12.80;99.90;;;;;;2073148;28;20068;-74
2022/10/28 05:06:21;;;;;;;55.42;34.00;;;12.80;99.90;;;;;;2073093;28;20026;-75
2022/10/28 05:14:22;;;;;;;57.13;34.60;;;12.80;99.90;;;;;;2072357;28;20022;-75
2022/10/28 05:22:31;;;;;;;49.47;31.35;;;12.80;99.90;;;;;;2072319;28;20406;-75
2022/10/28 05:23:31;;;;;;;47.33;30.08;;;12.80;99.90;;;;;;2072693;28;20030;-72
2022/10/28 05:24:32;;;;;;;54.95;34.15;;;12.80;99.90;;;;;;2072100;28;20058;-72
2022/10/28 05:25:33;;;;;;;51.05;32.08;;;12.80;99.90;;;;;;2072132;28;20030;-72
2022/10/28 05:26:33;;;;;;;50.13;32.35;;;12.80;99.90;;;;;;2067070;28;20026;-70
2022/10/28 05:27:34;;;;;;;50.20;31.73;;;12.80;99.90;;;;;;2068971;28;20393;-71
2022/10/28 05:28:35;;;;;;;51.08;32.35;;;12.80;99.90;;;;;;2068955;28;20057;-72
2022/10/28 05:29:35;;;;;;;55.50;33.35;;;12.80;99.90;;;;;;2072254;28;20026;-71
2022/10/28 05:30:36;;;;;;;54.72;33.47;;;12.80;99.90;;;;;;2071909;28;20256;-71
2022/10/28 05:31:37;;;;;;;47.85;31.88;;;12.80;99.90;;;;;;2072618;28;20036;-74
2022/10/28 05:32:38;;;;;;;55.05;33.30;;;12.80;99.90;;;;;;2072316;28;20032;-74
2022/10/28 05:33:38;;;;;;;52.85;32.70;;;12.80;99.90;;;;;;2072358;28;20496;-74
2022/10/28 05:34:39;;;;;;;48.10;31.98;;;12.80;99.90;;;;;;2071457;28;20053;-74
2022/10/28 05:35:40;;;;;;;52.08;32.65;;;12.80;99.90;;;;;;2063503;28;20660;-73
2022/10/28 05:36:40;;;;;;;58.15;34.50;;;12.80;99.90;;;;;;2071807;28;20022;-74
2022/10/28 05:37:42;;;;;;;51.35;32.30;;;12.70;99.90;;;;;;2072414;28;20022;-74
2022/10/28 05:38:44;;;;;;;54.38;33.63;;;12.80;99.90;;;;;;2071946;28;20463;-75
2022/10/28 05:39:44;;;;;;;48.15;31.40;;;12.80;99.90;;;;;;2072024;28;20030;-74
2022/10/28 05:40:45;;;;;;;48.80;31.20;;;12.80;99.90;;;;;;2073839;28;20064;-74
2022/10/28 05:41:46;;;;;;;49.78;32.28;;;12.70;99.90;;;;;;2074465;28;20038;-74
2022/10/28 05:42:46;;;;;;;56.97;33.70;;;12.70;99.90;;;;;;2075160;28;20063;-73
2022/10/28 05:43:47;;;;;;;46.38;30.23;;;12.70;99.90;;;;;;2074350;28;20084;-73
2022/10/28 05:49:39;;;;;;;56.20;33.60;;;12.60;99.90;;;;;;2072373;28;20528;-73
2022/10/28 05:50:40;;;;;;;56.33;34.47;;;12.60;99.90;;;;;;2072573;28;20026;-73
2022/10/28 05:51:40;;;;;;;49.20;30.38;;;12.60;99.90;;;;;;2071982;28;20030;-75
2022/10/28 05:55:03;;;;;;;54.03;33.05;;;12.60;99.90;;;;;;2071339;28;20033;-74
2022/10/28 05:56:04;;;;;;;49.33;32.08;;;12.60;99.90;;;;;;2072332;28;20030;-75
2022/10/28 05:57:05;;;;;;;54.53;34.28;;;12.60;99.90;;;;;;2074800;28;20464;-76
2022/10/28 05:58:05;;;;;;;52.35;33.60;;;12.60;99.90;;;;;;2072905;28;20544;-71
2022/10/28 05:59:06;;;;;;;56.85;35.03;;;12.60;99.90;;;;;;2072708;28;20044;-73
2022/10/28 06:00:07;;;;;;;47.75;31.95;;;12.60;99.90;;;;;;2088527;28;20118;-73
2022/10/28 06:01:12;;;;;;;49.42;31.88;;;12.60;99.90;;;;;;2087152;28;20024;-72
2022/10/28 06:02:14;;;;;;;51.70;32.97;;;12.60;99.90;;;;;;2074059;28;20038;-74
2022/10/28 06:03:14;;;;;;;48.80;31.73;;;12.60;99.90;;;;;;2072831;28;20041;-74
2022/10/28 06:04:15;;;;;;;46.88;30.40;;;12.60;99.90;;;;;;2069869;28;20045;-74
2022/10/28 06:07:39;;;;;;;50.45;31.85;;;12.60;99.90;;;;;;2069957;28;20041;-72
2022/10/28 06:08:40;;;;;;;47.80;30.60;;;12.60;99.90;;;;;;2073495;28;20030;-75
2022/10/28 06:09:40;;;;;;;47.58;30.65;;;12.60;99.90;;;;;;2074399;28;20026;-75
2022/10/28 06:10:49;;;;;;;46.88;31.10;;;12.70;99.90;;;;;;2073833;28;20022;-75